Time;durP1;ratioP1;P1;durP2;ratioP2;P2;SDS_P1;SDS_P2;PMS_P1;PMS_P2;Temp;Humidity;BMP_temperature;BMP_pressure;BME280_temperature;BME280_humidity;BME280_pressure;Samples;Min_cycle;Max_cycle;Signal;HPM_P1;HPM_P2
2022/10/12 00:00:54;;;;;;;22.42;20.98;;;;;;;11.91;59.15;102416.13;5010359;28;20072;-74
2022/10/12 00:03:21;;;;;;;21.45;20.13;;;;;;;11.91;59.22;102418.00;4994874;28;20532;-75
2022/10/12 00:05:50;;;;;;;23.75;22.05;;;;;;;11.89;59.03;102418.25;5007315;28;20036;-76
2022/10/12 00:08:15;;;;;;;22.65;21.25;;;;;;;11.88;58.89;102410.31;4991474;28;20364;-76
2022/10/12 00:10:42;;;;;;;22.42;20.98;;;;;;;11.88;58.98;102418.44;5010376;28;20030;-75
2022/10/12 00:13:09;;;;;;;21.48;19.92;;;;;;;11.86;59.10;102417.78;5000967;28;20041;-74
2022/10/12 00:15:39;;;;;;;21.15;19.75;;;;;;;11.85;59.11;102413.44;5010305;28;20034;-74
2022/10/12 00:18:05;;;;;;;22.38;20.98;;;;;;;11.83;59.01;102424.44;5009048;28;20046;-74
2022/10/12 00:20:31;;;;;;;20.60;19.40;;;;;;;11.82;58.96;102421.97;5010018;28;20034;-74
2022/10/12 00:22:56;;;;;;;23.58;22.02;;;;;;;11.81;58.99;102414.88;4997529;28;20501;-74
2022/10/12 00:25:22;;;;;;;21.42;20.05;;;;;;;11.79;59.15;102417.81;5001288;28;20052;-74
2022/10/12 00:27:47;;;;;;;20.35;19.15;;;;;;;11.79;58.75;102425.06;4975418;28;20042;-75
2022/10/12 00:30:13;;;;;;;20.70;19.35;;;;;;;11.77;58.94;102425.31;5002056;28;20479;-74
2022/10/12 00:32:38;;;;;;;21.45;19.60;;;;;;;11.77;59.08;102424.44;5015581;28;20061;-74
2022/10/12 00:35:04;;;;;;;22.92;21.52;;;;;;;11.76;58.93;102428.22;4986536;28;20518;-74
2022/10/12 00:37:29;;;;;;;22.67;21.20;;;;;;;11.73;58.92;102424.03;4994955;28;20042;-74
2022/10/12 00:39:55;;;;;;;21.45;20.15;;;;;;;11.73;59.26;102423.22;4977923;28;20050;-74
2022/10/12 00:42:20;;;;;;;20.88;19.50;;;;;;;11.72;59.09;102421.53;4994704;28;20046;-74
2022/10/12 00:44:48;;;;;;;21.88;20.45;;;;;;;11.70;58.87;102424.47;5012374;28;20034;-73
2022/10/12 00:47:34;;;;;;;21.27;19.70;;;;;;;11.68;59.10;102419.25;5000873;28;20038;-73
2022/10/12 00:50:06;;;;;;;23.08;21.25;;;;;;;11.67;58.84;102423.00;5014268;28;20030;-74
2022/10/12 00:52:39;;;;;;;21.92;20.33;;;;;;;11.64;58.77;102420.72;5013486;28;20033;-74
2022/10/12 00:55:08;;;;;;;21.88;20.55;;;;;;;11.64;59.08;102417.16;5004013;28;20030;-74
2022/10/12 00:57:33;;;;;;;21.35;19.95;;;;;;;11.62;58.93;102411.97;4994534;28;20030;-74
2022/10/12 01:00:03;;;;;;;24.00;22.40;;;;;;;11.61;58.87;102404.88;4995476;28;20033;-74
2022/10/12 01:02:31;;;;;;;21.15;19.75;;;;;;;11.60;58.83;102403.22;4996965;28;20425;-74
2022/10/12 01:04:57;;;;;;;22.58;20.67;;;;;;;11.59;59.02;102401.59;5009523;28;20053;-75
2022/10/12 01:07:22;;;;;;;20.55;19.02;;;;;;;11.58;59.00;102401.78;5001456;28;20034;-75
2022/10/12 01:09:48;;;;;;;19.02;17.85;;;;;;;11.57;58.72;102398.25;4997266;28;20108;-74
2022/10/12 01:12:14;;;;;;;21.23;19.73;;;;;;;11.55;59.11;102400.31;4996788;28;20501;-74
2022/10/12 01:14:40;;;;;;;20.90;19.58;;;;;;;11.55;58.99;102400.31;5005093;28;20052;-74
2022/10/12 01:17:15;;;;;;;21.73;20.10;;;;;;;11.53;58.90;102396.16;5004496;28;20390;-75
2022/10/12 01:19:53;;;;;;;21.10;19.90;;;;;;;11.52;58.64;102406.16;5014802;28;20036;-74
2022/10/12 01:22:20;;;;;;;20.50;19.30;;;;;;;11.50;58.89;102400.13;5014643;28;20030;-74
2022/10/12 01:25:03;;;;;;;21.27;19.92;;;;;;;11.49;59.05;102398.47;5005692;28;20045;-73
2022/10/12 01:27:49;;;;;;;20.23;19.02;;;;;;;11.47;58.68;102387.00;4993988;28;20027;-74
2022/10/12 01:30:25;;;;;;;19.17;18.08;;;;;;;11.46;58.88;102393.44;4994916;28;20038;-74
2022/10/12 01:33:05;;;;;;;20.80;19.50;;;;;;;11.44;58.95;102390.97;4997785;28;20027;-75
2022/10/12 01:35:33;;;;;;;20.08;18.80;;;;;;;11.43;58.99;102391.16;5012837;28;20494;-74
2022/10/12 01:38:24;;;;;;;21.42;20.05;;;;;;;11.42;58.81;102389.50;5011371;28;20462;-74
2022/10/12 01:40:59;;;;;;;19.60;18.40;;;;;;;11.40;58.79;102399.69;4986001;28;20053;-74
2022/10/12 01:43:40;;;;;;;21.15;19.90;;;;;;;11.39;58.91;102389.91;5009841;28;20133;-74
2022/10/12 01:46:25;;;;;;;22.55;20.10;;;;;;;11.38;58.66;102388.25;4993646;28;20041;-75
2022/10/12 01:48:56;;;;;;;19.17;17.98;;;;;;;11.37;58.69;102381.19;4994434;28;20050;-74
2022/10/12 01:51:38;;;;;;;20.50;19.10;;;;;;;11.35;58.57;102384.09;5031730;28;20033;-75
2022/10/12 01:54:25;;;;;;;22.08;20.67;;;;;;;11.35;58.82;102375.97;4996491;28;20041;-74
2022/10/12 01:56:57;;;;;;;21.15;19.73;;;;;;;11.32;58.98;102365.56;5003800;28;20037;-74
2022/10/12 01:59:40;;;;;;;19.08;17.88;;;;;;;11.31;58.85;102363.06;4994680;28;20089;-75
2022/10/12 02:02:21;;;;;;;21.45;20.05;;;;;;;11.30;58.99;102364.09;4998670;28;20121;-74
2022/10/12 02:05:11;;;;;;;20.38;18.85;;;;;;;11.29;58.78;102362.41;5012432;28;20069;-74
2022/10/12 02:07:41;;;;;;;20.45;19.05;;;;;;;11.26;58.89;102358.25;5007204;28;20046;-75
2022/10/12 02:10:19;;;;;;;21.02;19.15;;;;;;;11.25;58.69;102368.25;4994872;28;20030;-74
2022/10/12 02:12:47;;;;;;;20.35;18.85;;;;;;;11.25;58.86;102362.03;5007857;28;20501;-75
2022/10/12 02:15:14;;;;;;;21.70;20.23;;;;;;;11.23;58.78;102364.91;4976852;28;20475;-74
2022/10/12 02:17:42;;;;;;;20.05;18.73;;;;;;;11.22;58.76;102368.69;4994057;28;20388;-74
2022/10/12 02:20:11;;;;;;;20.73;19.50;;;;;;;11.21;58.80;102361.63;4995956;28;20073;-74
2022/10/12 02:22:40;;;;;;;19.48;18.38;;;;;;;11.21;58.74;102363.47;4994039;28;20030;-74
2022/10/12 02:25:09;;;;;;;21.42;19.77;;;;;;;11.20;58.70;102364.50;4993844;28;20034;-75
2022/10/12 02:27:37;;;;;;;21.05;19.63;;;;;;;11.19;58.75;102360.16;5012981;28;20084;-75
2022/10/12 02:30:03;;;;;;;21.35;20.05;;;;;;;11.17;58.47;102357.66;4995131;28;20040;-75
2022/10/12 02:32:51;;;;;;;19.13;18.08;;;;;;;11.16;58.79;102355.13;4995877;28;20038;-75
2022/10/12 02:35:33;;;;;;;19.65;18.30;;;;;;;11.15;58.76;102356.19;4992033;28;20046;-75
2022/10/12 02:38:12;;;;;;;19.77;18.55;;;;;;;11.14;58.45;102355.38;5003092;28;20054;-75
2022/10/12 02:40:44;;;;;;;;;;;;;;;11.11;58.82;102353.06;4993192;28;20100;-75
2022/10/12 02:43:27;;;;;;;20.80;19.27;;;;;;;11.10;58.62;102345.16;5003795;28;19909;-75
2022/10/12 02:45:55;;;;;;;19.65;18.35;;;;;;;11.08;58.77;102348.06;5003174;28;20034;-75
2022/10/12 02:48:23;;;;;;;18.45;17.05;;;;;;;11.07;58.72;102343.69;5012606;28;20105;-75
2022/10/12 02:50:53;;;;;;;18.77;17.38;;;;;;;11.05;58.83;102341.19;5012864;28;20038;-75
2022/10/12 02:53:20;;;;;;;21.60;20.20;;;;;;;11.04;58.79;102339.53;4992659;28;20038;-75
2022/10/12 02:55:51;;;;;;;20.27;19.08;;;;;;;11.04;58.82;102338.72;5003091;28;20478;-74
2022/10/12 02:58:16;;;;;;;20.48;19.17;;;;;;;11.03;58.84;102337.03;5012265;28;20033;-74
2022/10/12 03:00:42;;;;;;;20.40;19.20;;;;;;;11.02;58.80;102338.09;5013063;28;20034;-75
2022/10/12 03:03:07;;;;;;;20.85;19.27;;;;;;;11.00;58.92;102335.56;5011319;28;20117;-75
2022/10/12 03:05:33;;;;;;;20.70;19.30;;;;;;;11.00;58.66;102334.75;4990551;28;20042;-75
2022/10/12 03:07:58;;;;;;;20.20;18.90;;;;;;;10.99;58.87;102333.09;4992030;28;20382;-75
2022/10/12 03:10:24;;;;;;;19.80;18.60;;;;;;;10.97;58.57;102330.59;4992276;28;20035;-74
2022/10/12 03:12:49;;;;;;;19.80;18.60;;;;;;;10.96;58.69;102331.63;5012371;28;20038;-75
2022/10/12 03:15:14;;;;;;;20.90;19.02;;;;;;;10.96;58.72;102322.66;5004945;28;20042;-75
2022/10/12 03:17:40;;;;;;;19.17;17.98;;;;;;;10.94;58.85;102328.31;5012862;28;20121;-75
2022/10/12 03:20:05;;;;;;;18.85;17.70;;;;;;;10.93;58.87;102320.38;5010732;28;20069;-75
2022/10/12 03:22:31;;;;;;;19.55;17.98;;;;;;;10.93;58.95;102323.09;4993976;28;20042;-75
2022/10/12 03:24:59;;;;;;;19.08;17.75;;;;;;;10.91;58.78;102323.31;4991456;28;20073;-75
2022/10/12 03:27:24;;;;;;;20.17;18.58;;;;;;;10.90;58.73;102316.22;4991099;28;20379;-75
2022/10/12 03:29:50;;;;;;;20.25;18.95;;;;;;;10.89;58.80;102319.16;5005353;28;20040;-75
2022/10/12 03:32:15;;;;;;;20.10;18.77;;;;;;;10.88;58.60;102326.41;5001176;28;20045;-75
2022/10/12 03:34:40;;;;;;;19.40;18.20;;;;;;;10.87;58.72;102324.75;5011220;28;20030;-75
2022/10/12 03:37:06;;;;;;;21.48;19.73;;;;;;;10.86;58.68;102328.50;5011640;28;20030;-75
2022/10/12 03:39:31;;;;;;;19.10;18.08;;;;;;;10.85;58.53;102318.72;5005248;28;20031;-74
2022/10/12 03:41:56;;;;;;;18.13;16.90;;;;;;;10.85;58.63;102334.09;5001750;28;20117;-75
2022/10/12 03:44:22;;;;;;;21.83;19.70;;;;;;;10.83;58.93;102321.63;5011276;28;20041;-75
2022/10/12 03:46:47;;;;;;;18.20;17.15;;;;;;;10.82;58.65;102319.13;4994339;28;20038;-75
2022/10/12 03:49:12;;;;;;;19.70;18.35;;;;;;;10.81;58.66;102323.72;5006074;28;20088;-75
2022/10/12 03:51:38;;;;;;;18.65;17.45;;;;;;;10.80;58.57;102311.22;4997599;28;20034;-75
2022/10/12 03:54:03;;;;;;;18.85;17.75;;;;;;;10.79;58.54;102317.66;4992542;28;20034;-75
2022/10/12 03:56:29;;;;;;;19.90;17.92;;;;;;;10.77;58.67;102308.94;4996764;28;20034;-75
2022/10/12 03:58:54;;;;;;;20.63;19.50;;;;;;;10.77;58.61;102322.44;5010707;28;20117;-75
2022/10/12 04:01:20;;;;;;;20.52;19.05;;;;;;;10.76;58.85;102319.94;5010598;28;20176;-80
2022/10/12 04:03:45;;;;;;;20.60;19.30;;;;;;;10.74;58.59;102322.03;5011858;28;20037;-80
2022/10/12 04:06:10;;;;;;;19.70;18.30;;;;;;;10.74;58.77;102313.94;4999250;28;20046;-79
2022/10/12 04:08:36;;;;;;;19.58;18.02;;;;;;;10.74;58.57;102316.63;4999183;28;20034;-82
2022/10/12 04:11:03;;;;;;;19.52;18.25;;;;;;;10.72;58.39;102314.13;4997310;28;20030;-81
2022/10/12 04:13:28;;;;;;;19.65;18.55;;;;;;;10.72;58.59;102324.09;4996711;28;20026;-80
2022/10/12 04:15:54;;;;;;;19.88;18.65;;;;;;;10.71;58.72;102317.00;4979527;28;20121;-81
2022/10/12 04:18:19;;;;;;;21.15;19.50;;;;;;;10.70;58.42;102315.38;5014076;28;20041;-80
2022/10/12 04:20:48;;;;;;;20.10;18.77;;;;;;;10.67;58.56;102311.19;4996160;28;20129;-80
2022/10/12 04:23:14;;;;;;;21.42;19.65;;;;;;;10.67;58.53;102313.91;4995880;28;20045;-80
2022/10/12 04:25:40;;;;;;;18.60;17.50;;;;;;;10.66;58.33;102303.28;5012349;28;20076;-80
2022/10/12 04:28:06;;;;;;;19.10;17.73;;;;;;;10.64;58.59;102308.09;5013533;28;20038;-80
2022/10/12 04:30:32;;;;;;;20.05;18.65;;;;;;;10.64;58.41;102314.31;4996004;28;20026;-80
2022/10/12 04:33:00;;;;;;;18.33;17.23;;;;;;;10.63;58.52;102304.53;5012167;28;20088;-81
2022/10/12 04:35:26;;;;;;;19.10;17.80;;;;;;;10.63;58.53;102306.41;4979616;28;20553;-82
2022/10/12 04:37:52;;;;;;;20.17;18.63;;;;;;;10.61;58.46;102306.63;4996701;28;20380;-82
2022/10/12 04:40:17;;;;;;;20.60;19.10;;;;;;;10.60;58.62;102304.94;4995653;28;20065;-82
2022/10/12 04:42:43;;;;;;;20.58;19.02;;;;;;;10.58;58.44;102307.00;4995703;28;20072;-81
2022/10/12 04:45:10;;;;;;;20.00;18.80;;;;;;;10.57;58.57;102311.59;4996186;28;20034;-81
2022/10/12 04:47:35;;;;;;;21.42;19.33;;;;;;;10.56;58.53;102312.63;5012038;28;20038;-82
2022/10/12 04:50:00;;;;;;;19.58;18.30;;;;;;;10.55;58.48;102310.94;5011611;28;20040;-81
2022/10/12 04:52:26;;;;;;;21.30;19.95;;;;;;;10.55;58.41;102318.22;4979468;28;20079;-80
2022/10/12 04:54:51;;;;;;;21.00;19.08;;;;;;;10.53;58.37;102315.75;4996018;28;20359;-84
2022/10/12 04:57:16;;;;;;;21.13;19.60;;;;;;;10.53;58.38;102314.91;4995029;28;20493;-81
2022/10/12 04:59:42;;;;;;;18.65;17.45;;;;;;;10.51;58.50;102312.41;5012229;28;20034;-80
2022/10/12 05:02:08;;;;;;;20.48;19.33;;;;;;;10.51;58.58;102306.19;5011292;28;20041;-81
2022/10/12 05:04:33;;;;;;;20.23;18.77;;;;;;;10.50;58.61;102304.50;4995526;28;20112;-80
2022/10/12 05:06:59;;;;;;;18.52;17.50;;;;;;;10.49;58.56;102306.38;4995777;28;20137;-81
2022/10/12 05:09:26;;;;;;;19.42;18.13;;;;;;;10.47;58.50;102303.03;5014848;28;20033;-82
2022/10/12 05:11:51;;;;;;;20.25;19.05;;;;;;;10.47;58.52;102299.50;5015757;28;20025;-79
2022/10/12 05:14:16;;;;;;;19.67;18.27;;;;;;;10.46;58.43;102301.38;4982843;28;20393;-82
2022/10/12 05:16:42;;;;;;;19.80;18.52;;;;;;;10.44;58.55;102289.13;4982856;28;20088;-80
2022/10/12 05:19:07;;;;;;;18.88;17.73;;;;;;;10.43;58.47;102290.16;5016271;28;20179;-80
2022/10/12 05:21:33;;;;;;;18.90;17.77;;;;;;;10.42;58.59;102286.63;5014940;28;20462;-79
2022/10/12 05:23:58;;;;;;;18.98;17.90;;;;;;;10.41;58.55;102287.66;5016271;28;20122;-80
2022/10/12 05:26:24;;;;;;;20.10;18.80;;;;;;;10.39;58.45;102287.84;5014415;28;20034;-79
2022/10/12 05:28:50;;;;;;;18.95;17.85;;;;;;;10.38;58.56;102294.31;4998722;28;20034;-80
2022/10/12 05:31:15;;;;;;;18.65;17.52;;;;;;;10.38;58.48;102291.59;5014708;28;20068;-80
2022/10/12 05:33:42;;;;;;;18.25;17.15;;;;;;;10.36;58.65;102287.44;5014360;28;20065;-80
2022/10/12 05:36:07;;;;;;;18.58;17.52;;;;;;;10.37;58.34;102284.53;4998233;28;20103;-80
2022/10/12 05:38:33;;;;;;;22.13;20.45;;;;;;;10.35;58.49;102285.75;4998494;28;20049;-79
2022/10/12 05:40:59;;;;;;;18.63;17.42;;;;;;;10.34;58.43;102279.53;4998561;28;20038;-77
2022/10/12 05:43:25;;;;;;;23.55;21.05;;;;;;;10.33;58.47;102287.81;5015792;28;20030;-79
2022/10/12 05:45:50;;;;;;;19.67;18.27;;;;;;;10.32;58.52;102291.56;4998318;28;20054;-79
2022/10/12 05:48:16;;;;;;;19.88;18.58;;;;;;;10.30;58.49;102294.47;5014672;28;20044;-81
2022/10/12 05:50:41;;;;;;;19.25;17.98;;;;;;;10.30;58.43;102286.34;4997508;28;20437;-80
2022/10/12 05:53:07;;;;;;;18.15;16.80;;;;;;;10.28;58.58;102285.75;4982091;28;20030;-79
2022/10/12 05:55:32;;;;;;;20.63;19.25;;;;;;;10.29;58.40;102284.72;4998547;28;20080;-82
2022/10/12 05:57:57;;;;;;;18.25;17.15;;;;;;;10.27;58.47;102284.03;5015471;28;20030;-80
2022/10/12 06:00:23;;;;;;;20.35;18.77;;;;;;;10.27;58.43;102280.50;4998185;28;20049;-77
2022/10/12 06:02:48;;;;;;;19.35;18.25;;;;;;;10.25;58.29;102283.41;4998159;28;20041;-79
2022/10/12 06:05:14;;;;;;;19.38;18.08;;;;;;;10.23;58.57;102287.34;5014373;28;20033;-80
2022/10/12 06:07:39;;;;;;;19.13;17.92;;;;;;;10.23;58.51;102281.94;4998549;28;20042;-79
2022/10/12 06:10:05;;;;;;;17.83;16.75;;;;;;;10.22;58.66;102283.81;5013628;28;20033;-80
2022/10/12 06:12:31;;;;;;;20.33;19.00;;;;;;;10.21;58.51;102281.34;4997037;28;20061;-80
2022/10/12 06:14:57;;;;;;;18.77;17.58;;;;;;;10.21;58.39;102275.94;5014050;28;20030;-79
2022/10/12 06:17:22;;;;;;;20.52;19.13;;;;;;;10.19;58.27;102279.66;5013984;28;20532;-81
2022/10/12 06:19:47;;;;;;;18.27;17.00;;;;;;;10.19;58.46;102273.44;5013501;28;20038;-81
2022/10/12 06:22:13;;;;;;;20.35;18.88;;;;;;;10.18;58.47;102277.19;5014051;28;20030;-80
2022/10/12 06:24:38;;;;;;;17.15;16.13;;;;;;;10.16;58.28;102280.06;4997533;28;20065;-80
2022/10/12 06:27:05;;;;;;;19.70;18.30;;;;;;;10.16;58.34;102276.53;4996786;28;20072;-79
2022/10/12 06:29:31;;;;;;;20.70;19.05;;;;;;;10.14;58.49;102268.63;5014061;28;20116;-79
2022/10/12 06:31:57;;;;;;;18.98;17.88;;;;;;;10.14;58.78;102270.50;4997502;28;20113;-78
2022/10/12 06:34:22;;;;;;;19.05;17.75;;;;;;;10.12;58.47;102268.00;5014504;28;20084;-78
2022/10/12 06:36:48;;;;;;;19.60;18.20;;;;;;;10.12;58.57;102277.97;5012559;28;20489;-78
2022/10/12 06:39:13;;;;;;;20.65;19.27;;;;;;;10.11;58.68;102271.75;5013648;28;20038;-78
2022/10/12 06:41:39;;;;;;;19.40;17.80;;;;;;;10.11;58.45;102284.41;4980424;28;20029;-78
2022/10/12 06:44:05;;;;;;;19.48;18.10;;;;;;;10.10;58.73;102285.44;5012807;28;20030;-77
2022/10/12 06:46:31;;;;;;;21.33;19.80;;;;;;;10.09;58.61;102278.38;5013416;28;20618;-79
2022/10/12 06:48:56;;;;;;;19.13;17.90;;;;;;;10.08;58.47;102274.84;5013852;28;20042;-78
2022/10/12 06:51:21;;;;;;;18.92;17.63;;;;;;;10.08;58.39;102282.09;5012923;28;20125;-81
2022/10/12 06:53:47;;;;;;;17.30;16.30;;;;;;;10.06;58.39;102276.91;5013050;28;20049;-78
2022/10/12 06:56:13;;;;;;;18.05;16.75;;;;;;;10.06;58.73;102281.50;4996932;28;20067;-79
2022/10/12 06:58:38;;;;;;;20.38;18.77;;;;;;;10.04;58.46;102278.97;5015599;28;20037;-79
2022/10/12 07:01:06;;;;;;;19.52;18.17;;;;;;;10.04;58.78;102275.44;5019425;28;20040;-80
2022/10/12 07:03:31;;;;;;;19.88;18.58;;;;;;;10.03;58.38;102281.88;4998013;28;20453;-79
2022/10/12 07:06:12;;;;;;;18.05;16.90;;;;;;;10.02;58.74;102286.44;5013425;28;20105;-69
2022/10/12 07:08:39;;;;;;;19.20;17.85;;;;;;;10.00;58.69;102280.41;5014244;28;20080;-80
2022/10/12 07:11:07;;;;;;;19.02;17.60;;;;;;;9.99;58.64;102276.03;5013084;28;20026;-79
2022/10/12 07:13:34;;;;;;;20.42;19.13;;;;;;;9.98;58.68;102274.41;5013845;28;20107;-79
2022/10/12 07:16:00;;;;;;;19.55;18.08;;;;;;;9.96;58.65;102277.28;5012646;28;20034;-78
2022/10/12 07:18:25;;;;;;;20.23;18.90;;;;;;;9.96;58.82;102277.28;5012876;28;20042;-79
2022/10/12 07:20:51;;;;;;;19.63;18.42;;;;;;;9.95;58.75;102275.63;4997128;28;20069;-79
2022/10/12 07:23:17;;;;;;;18.83;17.38;;;;;;;9.94;58.44;102279.34;5012690;28;20096;-81
2022/10/12 07:25:51;;;;;;;19.83;18.55;;;;;;;9.94;58.46;102275.81;5012392;28;20484;-80
2022/10/12 07:28:18;;;;;;;18.85;17.65;;;;;;;9.94;58.68;102275.81;5013682;28;20038;-78
2022/10/12 07:30:44;;;;;;;25.90;19.65;;;;;;;9.93;58.59;102266.91;5013156;28;20465;-78
2022/10/12 07:33:10;;;;;;;19.52;18.13;;;;;;;9.92;58.77;102270.59;5012486;28;20084;-80
2022/10/12 07:35:35;;;;;;;23.27;21.45;;;;;;;9.92;58.61;102281.41;4995723;28;20058;-80
2022/10/12 07:38:01;;;;;;;20.10;18.58;;;;;;;9.92;58.75;102277.88;5012564;28;20486;-80
2022/10/12 07:40:27;;;;;;;21.75;20.10;;;;;;;9.92;58.81;102285.97;4996121;28;20030;-80
2022/10/12 07:42:53;;;;;;;20.00;18.33;;;;;;;9.91;58.55;102293.25;5013385;28;20033;-80
2022/10/12 07:45:18;;;;;;;20.05;18.48;;;;;;;9.91;58.61;102289.72;5012403;28;20095;-80
2022/10/12 07:47:45;;;;;;;21.98;20.05;;;;;;;9.91;58.84;102295.13;4995829;28;20461;-79
2022/10/12 07:50:11;;;;;;;22.45;20.65;;;;;;;9.90;58.79;102288.91;5012378;28;20045;-80
2022/10/12 07:52:37;;;;;;;23.38;21.33;;;;;;;9.89;58.76;102292.59;5012700;28;20026;-80
2022/10/12 07:55:02;;;;;;;21.63;19.88;;;;;;;9.90;58.74;102283.50;5012173;28;20378;-81
2022/10/12 07:57:28;;;;;;;19.80;18.35;;;;;;;9.90;58.78;102288.03;5013260;28;20471;-81
2022/10/12 07:59:53;;;;;;;20.25;18.83;;;;;;;9.90;58.79;102288.03;5011611;28;20037;-80
2022/10/12 08:02:19;;;;;;;22.48;20.67;;;;;;;9.90;58.54;102288.03;5011447;28;20034;-80
2022/10/12 08:04:44;;;;;;;25.63;23.27;;;;;;;9.88;58.86;102288.25;5011962;28;20492;-81
2022/10/12 08:07:09;;;;;;;21.45;20.05;;;;;;;9.88;58.92;102282.84;4996527;28;20038;-80
2022/10/12 08:09:35;;;;;;;22.30;20.55;;;;;;;9.88;58.86;102279.34;5011844;28;20049;-87
2022/10/12 08:12:01;;;;;;;22.75;20.95;;;;;;;9.88;58.65;102276.63;5012284;28;20213;-75
2022/10/12 08:14:27;;;;;;;24.00;21.95;;;;;;;9.88;58.78;102285.56;5013129;28;20116;-82
2022/10/12 08:16:52;;;;;;;28.90;20.67;;;;;;;9.89;58.88;102283.69;5011997;28;20109;-81
2022/10/12 08:19:18;;;;;;;22.88;21.15;;;;;;;9.88;58.95;102288.25;4995609;28;20069;-82
2022/10/12 08:21:43;;;;;;;22.90;21.00;;;;;;;9.88;58.80;102282.03;4995999;28;20377;-82
2022/10/12 08:24:10;;;;;;;23.00;21.02;;;;;;;9.88;58.72;102279.34;5016907;28;20062;-81
2022/10/12 08:26:35;;;;;;;24.98;20.42;;;;;;;9.88;59.03;102284.72;5016860;28;20058;-80
2022/10/12 08:29:03;;;;;;;20.65;18.83;;;;;;;9.87;58.90;102280.34;5014051;28;20034;-82
2022/10/12 08:31:29;;;;;;;21.52;20.00;;;;;;;9.87;58.87;102288.44;5013004;28;20053;-83
2022/10/12 08:33:56;;;;;;;22.77;20.75;;;;;;;9.86;58.67;102298.41;5012691;28;20466;-81
2022/10/12 08:36:23;;;;;;;24.50;22.52;;;;;;;9.86;58.94;102290.31;5014523;28;20100;-82
2022/10/12 08:38:52;;;;;;;25.23;22.13;;;;;;;9.86;58.74;102290.31;5012394;28;20026;-83
2022/10/12 08:41:25;;;;;;;21.55;19.67;;;;;;;9.86;59.19;102290.31;5013606;28;20124;-85
2022/10/12 08:44:28;;;;;;;22.02;20.02;;;;;;;9.86;59.15;102287.63;5015361;28;20122;-82
2022/10/12 08:47:28;;;;;;;23.48;21.48;;;;;;;9.87;59.14;102291.16;5015788;28;20120;-82
2022/10/12 08:49:53;;;;;;;19.70;18.30;;;;;;;9.86;59.31;102287.63;5016629;28;20497;-82
2022/10/12 08:52:30;;;;;;;25.17;22.52;;;;;;;9.86;59.30;102289.50;4998858;28;20034;-82
2022/10/12 08:55:05;;;;;;;20.08;18.67;;;;;;;9.86;59.59;102290.31;5015713;28;20069;-82
2022/10/12 08:57:31;;;;;;;30.13;24.98;;;;;;;9.87;59.46;102289.28;5015574;28;20029;-81
2022/10/12 08:59:58;;;;;;;25.77;23.33;;;;;;;9.87;59.61;102289.28;4982855;28;20042;-82
2022/10/12 09:02:44;;;;;;;26.83;24.52;;;;;;;9.87;60.21;102289.28;5015320;28;20132;-82
2022/10/12 09:05:29;;;;;;;26.00;23.45;;;;;;;9.87;60.30;102291.16;5015762;28;20033;-82
2022/10/12 09:08:17;;;;;;;27.48;24.90;;;;;;;9.88;60.72;102293.66;5000983;28;20030;-81
2022/10/12 09:11:02;;;;;;;27.58;25.02;;;;;;;9.88;60.69;102288.25;5015630;28;20481;-81
2022/10/12 09:13:46;;;;;;;28.58;25.77;;;;;;;9.89;61.00;102289.91;5015309;28;20026;-80
2022/10/12 09:16:20;;;;;;;25.92;23.38;;;;;;;9.89;61.04;102291.78;5014801;28;20034;-84
2022/10/12 09:18:51;;;;;;;27.33;24.52;;;;;;;9.89;61.13;102294.47;5015498;28;20030;-81
2022/10/12 09:21:19;;;;;;;25.70;23.13;;;;;;;9.90;61.12;102291.59;5015488;28;20025;-80
2022/10/12 09:23:46;;;;;;;25.98;23.55;;;;;;;9.91;61.05;102290.56;5014844;28;20040;-80
2022/10/12 09:26:16;;;;;;;28.60;23.58;;;;;;;9.93;61.40;102298.47;5016102;28;20209;-81
2022/10/12 09:28:54;;;;;;;27.98;24.70;;;;;;;9.94;61.73;102286.63;5015094;28;20453;-80
2022/10/12 09:31:50;;;;;;;23.02;21.05;;;;;;;9.94;61.69;102279.34;5015366;28;20120;-82
2022/10/12 09:34:15;;;;;;;25.00;21.92;;;;;;;9.95;61.49;102282.88;5016732;28;20037;-80
2022/10/12 09:36:41;;;;;;;24.73;22.25;;;;;;;9.95;61.74;102283.72;5014382;28;20053;-81
2022/10/12 09:39:16;;;;;;;25.75;23.00;;;;;;;9.98;62.35;102287.91;4998304;28;20038;-82
2022/10/12 09:41:43;;;;;;;20.27;18.95;;;;;;;9.99;62.07;102280.63;5014334;28;20018;-80
2022/10/12 09:44:20;;;;;;;25.33;22.02;;;;;;;10.00;61.56;102266.06;5015599;28;20033;-81
2022/10/12 09:46:59;;;;;;;28.77;25.13;;;;;;;10.00;62.08;102272.31;5014338;28;20034;-82
2022/10/12 09:49:45;;;;;;;29.08;24.95;;;;;;;10.03;62.34;102273.75;5014385;28;20406;-79
2022/10/12 09:52:16;;;;;;;24.08;21.88;;;;;;;10.05;61.92;102277.09;5016417;28;20038;-81
2022/10/12 09:54:52;;;;;;;28.48;25.77;;;;;;;10.05;62.29;102275.22;5014126;28;20025;-81
2022/10/12 09:57:34;;;;;;;25.90;23.38;;;;;;;10.07;62.73;102278.56;5016905;28;20029;-83
2022/10/12 10:00:04;;;;;;;22.75;20.88;;;;;;;10.09;62.52;102281.91;5017367;28;20034;-76
2022/10/12 10:02:30;;;;;;;26.55;23.98;;;;;;;10.10;63.11;102272.75;5014164;28;20026;-75
2022/10/12 10:05:22;;;;;;;24.60;22.35;;;;;;;10.13;63.71;102268.81;5013826;28;20060;-71
2022/10/12 10:07:47;;;;;;;24.40;22.27;;;;;;;10.15;63.66;102266.75;5015788;28;20030;-77
2022/10/12 10:10:23;;;;;;;26.23;23.55;;;;;;;10.16;64.06;102265.75;5015066;28;20041;-73
2022/10/12 10:12:50;;;;;;;27.73;24.98;;;;;;;10.17;63.87;102265.50;5014729;28;20386;-75
2022/10/12 10:15:19;;;;;;;25.67;23.27;;;;;;;10.19;63.88;102263.44;5013822;28;20521;-68
2022/10/12 10:17:52;;;;;;;26.33;22.90;;;;;;;10.19;64.29;102260.75;5014811;28;20116;-71
2022/10/12 10:20:32;;;;;;;25.15;22.85;;;;;;;10.22;63.91;102250.59;5015215;28;20470;-73
2022/10/12 10:22:58;;;;;;;25.98;23.38;;;;;;;10.22;63.79;102242.47;5015091;28;20030;-72
2022/10/12 10:25:25;;;;;;;25.35;22.95;;;;;;;10.23;64.32;102250.41;5013579;28;20037;-79
2022/10/12 10:28:21;;;;;;;25.48;23.23;;;;;;;10.26;64.28;102255.38;5014764;28;20379;-72
2022/10/12 10:31:04;;;;;;;28.15;24.50;;;;;;;10.26;64.40;102244.56;5014652;28;20061;-72
2022/10/12 10:33:35;;;;;;;27.20;24.48;;;;;;;10.27;64.42;102246.22;5014914;28;20078;-71
2022/10/12 10:36:21;;;;;;;27.35;24.27;;;;;;;10.29;64.58;102236.09;5014144;28;20054;-71
2022/10/12 10:38:58;;;;;;;25.20;22.80;;;;;;;10.32;64.95;102240.25;5014248;28;20057;-72
2022/10/12 10:41:37;;;;;;;26.42;24.02;;;;;;;10.33;65.07;102231.09;5014449;28;20402;-72
2022/10/12 10:44:03;;;;;;;22.60;20.25;;;;;;;10.34;64.93;102228.22;5014670;28;20052;-72
2022/10/12 10:46:33;;;;;;;23.73;21.52;;;;;;;10.36;64.78;102231.53;5013017;28;20137;-72
2022/10/12 10:49:32;;;;;;;23.25;21.42;;;;;;;10.37;64.45;102233.19;5014347;28;20076;-73
2022/10/12 10:51:59;;;;;;;25.42;23.05;;;;;;;10.40;64.47;102232.78;5010601;28;20049;-71
2022/10/12 10:54:33;;;;;;;24.25;21.90;;;;;;;10.42;64.51;102223.66;5014104;28;20101;-71
2022/10/12 10:57:09;;;;;;;25.30;23.10;;;;;;;10.43;64.58;102223.44;5014155;28;20029;-72
2022/10/12 10:59:53;;;;;;;27.23;24.63;;;;;;;10.46;64.56;102214.94;5014126;28;20058;-72
2022/10/12 11:02:44;;;;;;;25.73;23.13;;;;;;;10.49;64.66;102208.28;5012878;28;20057;-71
2022/10/12 11:05:15;;;;;;;23.95;21.48;;;;;;;10.50;64.54;102196.44;5012686;28;20061;-71
2022/10/12 11:08:06;;;;;;;21.35;19.73;;;;;;;10.51;64.28;102193.53;5012657;28;20037;-71
2022/10/12 11:10:40;;;;;;;29.00;22.33;;;;;;;10.54;64.23;102186.88;4982912;28;20068;-71
2022/10/12 11:13:16;;;;;;;25.10;22.55;;;;;;;10.56;64.38;102184.81;5014270;28;20072;-71
2022/10/12 11:16:26;;;;;;;26.92;24.27;;;;;;;10.60;64.74;102186.06;5012817;28;20209;-71
2022/10/12 11:18:58;;;;;;;30.83;23.92;;;;;;;10.61;64.46;102180.44;5006711;28;20054;-72
2022/10/12 11:21:52;;;;;;;24.17;21.73;;;;;;;10.64;64.77;102179.19;5013502;28;20034;-72
2022/10/12 11:24:31;;;;;;;21.85;19.88;;;;;;;10.66;64.16;102177.13;5013592;28;20030;-75